Time;durP1;ratioP1;P1;durP2;ratioP2;P2;SDS_P1;SDS_P2;PMS_P1;PMS_P2;Temp;Humidity;BMP_temperature;BMP_pressure;BME280_temperature;BME280_humidity;BME280_pressure;Samples;Min_cycle;Max_cycle;Signal;HPM_P1;HPM_P2
2023/08/18 00:00:11;;;;;;;1.73;1.50;;;;;;;;;;4912110;28;20071;-77
2023/08/18 00:02:37;;;;;;;5.22;1.73;;;;;;;;;;4906296;28;20055;-77
2023/08/18 00:05:04;;;;;;;3.28;1.60;;;;;;;;;;4919790;28;20133;-77
2023/08/18 00:07:30;;;;;;;2.47;1.70;;;;;;;;;;4887438;29;20058;-75
2023/08/18 00:09:56;;;;;;;2.55;1.40;;;;;;;;;;4883806;29;20123;-76
2023/08/18 00:12:22;;;;;;;2.28;1.50;;;;;;;;;;4900064;29;20051;-76
2023/08/18 00:14:48;;;;;;;2.35;1.38;;;;;;;;;;4903366;29;20163;-76
2023/08/18 00:17:14;;;;;;;2.55;1.55;;;;;;;;;;4901909;28;20151;-76
2023/08/18 00:19:40;;;;;;;3.10;1.52;;;;;;;;;;4893325;29;20074;-76
2023/08/18 00:22:07;;;;;;;8.57;1.73;;;;;;;;;;4896424;29;20044;-76
2023/08/18 00:24:35;;;;;;;2.63;1.40;;;;;;;;;;4895063;29;20047;-76
2023/08/18 00:27:01;;;;;;;5.63;1.73;;;;;;;;;;4901546;29;20051;-76
2023/08/18 00:29:27;;;;;;;2.53;1.40;;;;;;;;;;4897101;29;20139;-77
2023/08/18 00:31:53;;;;;;;4.50;1.58;;;;;;;;;;4895382;29;20178;-77
2023/08/18 00:34:19;;;;;;;1.65;1.50;;;;;;;;;;4915240;28;20062;-76
2023/08/18 00:36:45;;;;;;;4.75;1.60;;;;;;;;;;4888098;29;20047;-76
2023/08/18 00:39:11;;;;;;;2.83;1.70;;;;;;;;;;4909513;29;20063;-76
2023/08/18 00:41:38;;;;;;;3.70;1.70;;;;;;;;;;4922625;29;20761;-77
2023/08/18 00:44:04;;;;;;;1.92;1.58;;;;;;;;;;4933169;28;20047;-77
2023/08/18 00:46:31;;;;;;;3.33;1.60;;;;;;;;;;4902660;29;20814;-77
2023/08/18 00:49:02;;;;;;;5.13;1.75;;;;;;;;;;4897808;29;22331;-77
2023/08/18 00:51:28;;;;;;;3.33;1.45;;;;;;;;;;4902810;29;20420;-77
2023/08/18 00:53:55;;;;;;;2.60;1.63;;;;;;;;;;4883544;29;20047;-76
2023/08/18 00:56:22;;;;;;;5.40;1.77;;;;;;;;;;4899367;29;20091;-76
2023/08/18 00:58:48;;;;;;;3.45;1.80;;;;;;;;;;4899320;29;20050;-76
2023/08/18 01:01:14;;;;;;;5.50;2.75;;;;;;;;;;4896331;29;20051;-75
2023/08/18 01:03:41;;;;;;;3.10;1.65;;;;;;;;;;4896349;29;20043;-76
2023/08/18 01:06:07;;;;;;;3.97;1.50;;;;;;;;;;4896973;29;21394;-76
2023/08/18 01:08:33;;;;;;;6.07;1.80;;;;;;;;;;4887810;29;20059;-76
2023/08/18 01:11:02;;;;;;;4.93;1.83;;;;;;;;;;4895821;29;20143;-76
2023/08/18 01:13:41;;;;;;;3.88;2.10;;;;;;;;;;4900541;29;20894;-77
2023/08/18 01:16:11;;;;;;;2.40;1.52;;;;;;;;;;4900347;29;20043;-77
2023/08/18 01:18:38;;;;;;;2.47;1.63;;;;;;;;;;4900324;29;20071;-77
2023/08/18 01:21:06;;;;;;;3.40;1.90;;;;;;;;;;4894215;29;20075;-77
2023/08/18 01:23:39;;;;;;;2.80;1.70;;;;;;;;;;4898222;29;20136;-77
2023/08/18 01:26:05;;;;;;;2.72;1.88;;;;;;;;;;4899060;29;20139;-76
2023/08/18 01:28:32;;;;;;;3.03;1.80;;;;;;;;;;4905400;29;20044;-76
2023/08/18 01:30:58;;;;;;;2.38;1.70;;;;;;;;;;4907383;29;20090;-77
2023/08/18 01:33:32;;;;;;;5.53;1.85;;;;;;;;;;4900854;29;20154;-77
2023/08/18 01:36:03;;;;;;;3.53;1.90;;;;;;;;;;4905279;29;20194;-77
2023/08/18 01:38:31;;;;;;;2.35;1.60;;;;;;;;;;4898910;29;20162;-77
2023/08/18 01:40:57;;;;;;;7.30;2.47;;;;;;;;;;4904299;29;20048;-76
2023/08/18 01:43:24;;;;;;;2.58;1.70;;;;;;;;;;4884391;29;21646;-76
2023/08/18 01:45:50;;;;;;;4.32;1.83;;;;;;;;;;4889348;29;20058;-76
2023/08/18 01:48:16;;;;;;;2.88;1.63;;;;;;;;;;4899767;29;20052;-76
2023/08/18 01:50:42;;;;;;;4.88;1.85;;;;;;;;;;4902365;29;20048;-77
2023/08/18 01:53:08;;;;;;;2.72;1.80;;;;;;;;;;4897165;29;20043;-75
2023/08/18 01:55:34;;;;;;;3.28;1.90;;;;;;;;;;4898211;29;20166;-76
2023/08/18 01:58:00;;;;;;;3.88;1.50;;;;;;;;;;4904319;29;20079;-76
2023/08/18 02:00:26;;;;;;;4.72;2.03;;;;;;;;;;4913750;28;20062;-76
2023/08/18 02:02:52;;;;;;;3.78;2.00;;;;;;;;;;4895981;29;20390;-76
2023/08/18 02:05:18;;;;;;;3.70;2.40;;;;;;;;;;4896849;29;20052;-76
2023/08/18 02:07:44;;;;;;;4.03;2.30;;;;;;;;;;4898988;29;20048;-76
2023/08/18 02:10:12;;;;;;;4.80;2.05;;;;;;;;;;4881270;29;20064;-76
2023/08/18 02:12:38;;;;;;;5.63;2.20;;;;;;;;;;4896597;29;20504;-76
2023/08/18 02:15:04;;;;;;;4.68;2.13;;;;;;;;;;4897041;29;20044;-76
2023/08/18 02:17:30;;;;;;;5.28;2.60;;;;;;;;;;4895890;29;20544;-76
2023/08/18 02:19:59;;;;;;;4.40;2.20;;;;;;;;;;4905006;29;20498;-77
2023/08/18 02:22:26;;;;;;;6.53;2.42;;;;;;;;;;4902859;29;20051;-76
2023/08/18 02:24:52;;;;;;;4.63;2.40;;;;;;;;;;4904362;29;20082;-76
2023/08/18 02:27:19;;;;;;;6.82;2.85;;;;;;;;;;4905444;29;20074;-76
2023/08/18 02:29:45;;;;;;;2.83;2.00;;;;;;;;;;4906882;28;20265;-76
2023/08/18 02:32:11;;;;;;;3.38;2.08;;;;;;;;;;4902707;29;20150;-76
2023/08/18 02:34:37;;;;;;;8.60;2.55;;;;;;;;;;4907284;29;20074;-76
2023/08/18 02:37:03;;;;;;;5.38;2.50;;;;;;;;;;4910711;29;20144;-76
2023/08/18 02:39:29;;;;;;;2.90;2.10;;;;;;;;;;4905413;29;20048;-76
2023/08/18 02:41:55;;;;;;;4.82;2.33;;;;;;;;;;4902819;29;20059;-76
2023/08/18 02:44:25;;;;;;;6.18;2.92;;;;;;;;;;4899880;29;20070;-76
2023/08/18 02:46:51;;;;;;;3.42;2.60;;;;;;;;;;4900423;28;20070;-77
2023/08/18 02:49:17;;;;;;;5.25;2.72;;;;;;;;;;4898200;29;20063;-77
2023/08/18 02:51:43;;;;;;;5.70;2.40;;;;;;;;;;4899285;29;20210;-77
2023/08/18 02:54:09;;;;;;;4.85;2.50;;;;;;;;;;4880949;29;20052;-77
2023/08/18 02:56:37;;;;;;;3.53;2.20;;;;;;;;;;4900515;29;20056;-77
2023/08/18 02:59:03;;;;;;;5.10;3.17;;;;;;;;;;4899269;29;22037;-77
2023/08/18 03:01:29;;;;;;;5.55;2.67;;;;;;;;;;4904303;29;20062;-77
2023/08/18 03:03:55;;;;;;;5.47;2.80;;;;;;;;;;4901044;29;20044;-77
2023/08/18 03:06:21;;;;;;;6.20;3.28;;;;;;;;;;4902474;29;20059;-77
2023/08/18 03:08:47;;;;;;;4.00;2.70;;;;;;;;;;4906837;29;20051;-77
2023/08/18 03:11:14;;;;;;;6.38;2.90;;;;;;;;;;4905997;29;20047;-77
2023/08/18 03:13:40;;;;;;;3.55;2.60;;;;;;;;;;4902690;29;20729;-77
2023/08/18 03:16:06;;;;;;;4.10;3.03;;;;;;;;;;4890655;29;20083;-75
2023/08/18 03:18:32;;;;;;;3.97;3.00;;;;;;;;;;4902610;29;20654;-76
2023/08/18 03:20:59;;;;;;;5.38;3.20;;;;;;;;;;4902857;29;20063;-76
2023/08/18 03:23:25;;;;;;;3.95;3.03;;;;;;;;;;4899722;29;20051;-76
2023/08/18 03:25:51;;;;;;;6.05;2.92;;;;;;;;;;4901237;29;20174;-76
2023/08/18 03:28:17;;;;;;;3.70;2.85;;;;;;;;;;4902023;29;21641;-76
2023/08/18 03:30:44;;;;;;;7.00;3.22;;;;;;;;;;4902562;29;20055;-76
2023/08/18 03:33:10;;;;;;;8.32;3.40;;;;;;;;;;4901520;29;20422;-76
2023/08/18 03:35:37;;;;;;;6.75;3.80;;;;;;;;;;4902083;29;20056;-77
2023/08/18 03:38:06;;;;;;;10.07;3.65;;;;;;;;;;4903309;29;20837;-77
2023/08/18 03:40:32;;;;;;;4.65;3.35;;;;;;;;;;4904387;29;20051;-77
2023/08/18 03:42:58;;;;;;;4.32;3.55;;;;;;;;;;4903512;29;20095;-78
2023/08/18 03:45:24;;;;;;;7.07;4.05;;;;;;;;;;4900663;29;20078;-76
2023/08/18 03:47:51;;;;;;;5.30;3.88;;;;;;;;;;4902109;29;20048;-76
2023/08/18 03:50:18;;;;;;;7.40;3.90;;;;;;;;;;4919653;28;20492;-77
2023/08/18 03:52:44;;;;;;;7.35;3.40;;;;;;;;;;4907552;29;20052;-76
2023/08/18 03:55:14;;;;;;;6.72;3.90;;;;;;;;;;4907398;29;20055;-77
2023/08/18 03:57:40;;;;;;;6.68;3.70;;;;;;;;;;4907558;29;20564;-77
2023/08/18 04:00:09;;;;;;;7.07;3.50;;;;;;;;;;4891899;29;21609;-77
2023/08/18 04:02:35;;;;;;;6.65;3.53;;;;;;;;;;4898042;29;20076;-77
2023/08/18 04:05:01;;;;;;;9.18;3.72;;;;;;;;;;4900474;29;20389;-77
2023/08/18 04:07:27;;;;;;;5.47;3.75;;;;;;;;;;4893479;29;20047;-77
2023/08/18 04:09:53;;;;;;;8.20;3.90;;;;;;;;;;4890736;29;20056;-76
2023/08/18 04:12:20;;;;;;;5.68;3.35;;;;;;;;;;4910185;29;20047;-76
2023/08/18 04:14:46;;;;;;;9.65;3.70;;;;;;;;;;4890708;29;20047;-76
2023/08/18 04:17:12;;;;;;;6.75;4.47;;;;;;;;;;4907846;29;20448;-77
2023/08/18 04:19:41;;;;;;;5.22;3.30;;;;;;;;;;4914686;28;20062;-86
2023/08/18 04:22:07;;;;;;;8.00;3.90;;;;;;;;;;4905549;28;20079;-71
2023/08/18 04:24:33;;;;;;;6.38;3.70;;;;;;;;;;4925287;28;20047;-76
2023/08/18 04:26:59;;;;;;;5.28;4.00;;;;;;;;;;4906289;28;20043;-76
2023/08/18 04:29:28;;;;;;;4.03;3.25;;;;;;;;;;4912187;28;20146;-77
2023/08/18 04:31:55;;;;;;;5.60;3.92;;;;;;;;;;4922215;28;20408;-76
2023/08/18 04:34:21;;;;;;;6.10;3.28;;;;;;;;;;4910486;28;20082;-76
2023/08/18 04:36:47;;;;;;;10.38;4.32;;;;;;;;;;4905467;29;20047;-76
2023/08/18 04:39:13;;;;;;;5.97;3.88;;;;;;;;;;4906703;28;20049;-78
2023/08/18 04:41:39;;;;;;;9.90;4.80;;;;;;;;;;4918060;28;20055;-76
2023/08/18 04:44:06;;;;;;;6.97;3.67;;;;;;;;;;4921927;28;20905;-77
2023/08/18 04:46:32;;;;;;;6.30;3.85;;;;;;;;;;4916256;28;20126;-76
2023/08/18 04:48:58;;;;;;;9.52;4.18;;;;;;;;;;4894541;28;20048;-76
2023/08/18 04:51:25;;;;;;;7.53;4.05;;;;;;;;;;4905105;29;20105;-76
2023/08/18 04:53:51;;;;;;;8.02;3.85;;;;;;;;;;4893632;28;20047;-76
2023/08/18 04:56:17;;;;;;;7.28;4.13;;;;;;;;;;4894396;29;20050;-76
2023/08/18 04:58:43;;;;;;;7.68;4.55;;;;;;;;;;4904651;29;20043;-76
2023/08/18 05:01:09;;;;;;;5.05;4.00;;;;;;;;;;4920970;28;20070;-76
2023/08/18 05:03:36;;;;;;;6.10;4.10;;;;;;;;;;4905035;29;20508;-76
2023/08/18 05:06:08;;;;;;;8.85;4.05;;;;;;;;;;4903529;29;20069;-77
2023/08/18 05:08:34;;;;;;;8.57;4.15;;;;;;;;;;4902778;29;20054;-76
2023/08/18 05:11:08;;;;;;;8.18;4.57;;;;;;;;;;4904040;28;20062;-77
2023/08/18 05:13:36;;;;;;;8.55;5.00;;;;;;;;;;4915480;28;20617;-77
2023/08/18 05:16:06;;;;;;;8.40;5.07;;;;;;;;;;4902547;29;20046;-74
2023/08/18 05:18:33;;;;;;;7.18;4.65;;;;;;;;;;4918061;28;20053;-76
2023/08/18 05:21:00;;;;;;;12.63;4.93;;;;;;;;;;4919813;28;20059;-76
2023/08/18 05:23:27;;;;;;;9.93;5.05;;;;;;;;;;4902277;28;20563;-76
2023/08/18 05:25:54;;;;;;;8.60;5.32;;;;;;;;;;4921557;28;20047;-75
2023/08/18 05:28:25;;;;;;;11.25;5.60;;;;;;;;;;4907487;29;20493;-76
2023/08/18 05:30:55;;;;;;;6.28;4.65;;;;;;;;;;4921533;28;20063;-75
2023/08/18 05:33:21;;;;;;;9.15;5.30;;;;;;;;;;4899978;29;20055;-77
2023/08/18 05:35:47;;;;;;;9.48;5.22;;;;;;;;;;4896247;29;20047;-75
2023/08/18 05:38:14;;;;;;;10.57;5.50;;;;;;;;;;4917493;28;20062;-76
2023/08/18 05:40:43;;;;;;;10.88;5.72;;;;;;;;;;4921525;28;20070;-74
2023/08/18 05:43:09;;;;;;;10.50;5.95;;;;;;;;;;4905773;29;20703;-75
2023/08/18 05:45:39;;;;;;;10.15;4.82;;;;;;;;;;4922356;28;20046;-75
2023/08/18 05:48:05;;;;;;;10.48;5.72;;;;;;;;;;4918911;28;20054;-75
2023/08/18 05:50:31;;;;;;;7.63;5.32;;;;;;;;;;4920576;28;20134;-75
2023/08/18 05:52:58;;;;;;;9.10;5.70;;;;;;;;;;4919923;28;20039;-75
2023/08/18 05:55:24;;;;;;;8.50;4.97;;;;;;;;;;4904624;28;21654;-75
2023/08/18 05:57:51;;;;;;;15.77;6.25;;;;;;;;;;4910219;28;20047;-75
2023/08/18 06:00:18;;;;;;;13.35;6.15;;;;;;;;;;4906139;29;20711;-75
2023/08/18 06:02:44;;;;;;;10.98;6.30;;;;;;;;;;4921962;28;20785;-75
2023/08/18 06:05:11;;;;;;;9.77;5.95;;;;;;;;;;4903886;29;20039;-76
2023/08/18 06:07:39;;;;;;;12.00;6.00;;;;;;;;;;4919359;28;20911;-76
2023/08/18 06:10:06;;;;;;;10.95;7.07;;;;;;;;;;4921769;28;20080;-76
2023/08/18 06:12:32;;;;;;;9.25;5.95;;;;;;;;;;4921872;28;20047;-75
2023/08/18 06:14:58;;;;;;;9.68;6.20;;;;;;;;;;4902894;29;20395;-75
2023/08/18 06:17:24;;;;;;;11.45;6.65;;;;;;;;;;4903594;28;20103;-76
2023/08/18 06:19:50;;;;;;;8.80;6.07;;;;;;;;;;4921347;28;20059;-75
2023/08/18 06:22:17;;;;;;;8.43;6.22;;;;;;;;;;4904518;29;20079;-75
2023/08/18 06:24:43;;;;;;;8.63;6.00;;;;;;;;;;4919449;28;20048;-75
2023/08/18 06:27:09;;;;;;;10.40;6.55;;;;;;;;;;4920810;28;20114;-74
2023/08/18 06:29:35;;;;;;;10.57;6.43;;;;;;;;;;4908505;28;20062;-73
2023/08/18 06:32:02;;;;;;;8.50;6.63;;;;;;;;;;4926091;28;20114;-72
2023/08/18 06:34:28;;;;;;;15.05;6.75;;;;;;;;;;4921244;28;20039;-72
2023/08/18 06:36:54;;;;;;;7.82;5.88;;;;;;;;;;4907468;28;20047;-73
2023/08/18 06:39:20;;;;;;;11.88;6.13;;;;;;;;;;4922101;28;20043;-74
2023/08/18 06:41:46;;;;;;;9.13;7.18;;;;;;;;;;4922324;28;21979;-74
2023/08/18 06:44:12;;;;;;;11.50;7.30;;;;;;;;;;4921636;28;20173;-74
2023/08/18 06:46:38;;;;;;;10.27;6.55;;;;;;;;;;4922354;28;20051;-74
2023/08/18 06:49:04;;;;;;;10.25;6.72;;;;;;;;;;4902826;28;20048;-74
2023/08/18 06:51:30;;;;;;;10.77;6.53;;;;;;;;;;4922728;28;20055;-74
2023/08/18 06:53:57;;;;;;;8.35;6.63;;;;;;;;;;4895444;28;20086;-74
2023/08/18 06:56:23;;;;;;;11.25;6.53;;;;;;;;;;4922444;28;20040;-75
2023/08/18 06:58:49;;;;;;;11.18;7.20;;;;;;;;;;4921605;28;20059;-74
2023/08/18 07:01:15;;;;;;;12.75;7.15;;;;;;;;;;4904070;29;20685;-74
2023/08/18 07:03:41;;;;;;;10.82;7.00;;;;;;;;;;4921848;28;20134;-74
2023/08/18 07:06:08;;;;;;;11.63;7.15;;;;;;;;;;4905783;29;20131;-74
2023/08/18 07:08:35;;;;;;;11.52;7.75;;;;;;;;;;4891913;29;20202;-74
2023/08/18 07:11:02;;;;;;;9.90;5.95;;;;;;;;;;4922655;28;20189;-74
2023/08/18 07:13:29;;;;;;;12.63;6.78;;;;;;;;;;4924609;28;20051;-73
2023/08/18 07:15:55;;;;;;;11.15;6.53;;;;;;;;;;4923011;28;20769;-72
2023/08/18 07:18:21;;;;;;;10.75;6.35;;;;;;;;;;4925238;28;20039;-74
2023/08/18 07:20:47;;;;;;;11.52;6.95;;;;;;;;;;4906803;29;20067;-73
2023/08/18 07:23:14;;;;;;;12.80;7.07;;;;;;;;;;4922667;28;20106;-73
2023/08/18 07:25:42;;;;;;;10.45;7.03;;;;;;;;;;4924995;28;20508;-74
2023/08/18 07:28:09;;;;;;;8.60;6.00;;;;;;;;;;4908707;28;20043;-75
2023/08/18 07:30:35;;;;;;;9.70;7.10;;;;;;;;;;4924658;28;20047;-73
2023/08/18 07:33:01;;;;;;;11.73;7.07;;;;;;;;;;4906780;28;20098;-73
2023/08/18 07:35:27;;;;;;;12.68;8.40;;;;;;;;;;4924758;28;20075;-73
2023/08/18 07:37:54;;;;;;;9.88;6.80;;;;;;;;;;4924328;28;20413;-74
2023/08/18 07:40:20;;;;;;;11.20;7.93;;;;;;;;;;4879423;28;20488;-74
2023/08/18 07:42:46;;;;;;;15.02;8.25;;;;;;;;;;4899337;28;20047;-75
2023/08/18 07:45:12;;;;;;;10.65;7.30;;;;;;;;;;4923884;28;21854;-74
2023/08/18 07:47:39;;;;;;;11.43;7.65;;;;;;;;;;4909108;29;20499;-74
2023/08/18 07:50:07;;;;;;;13.25;7.90;;;;;;;;;;4906776;29;20452;-74
2023/08/18 07:52:34;;;;;;;11.32;7.35;;;;;;;;;;4923430;28;20777;-74
2023/08/18 07:55:01;;;;;;;13.60;7.47;;;;;;;;;;4904416;29;20047;-73
2023/08/18 07:57:27;;;;;;;15.40;6.53;;;;;;;;;;4923241;28;20396;-75
2023/08/18 07:59:53;;;;;;;12.13;6.93;;;;;;;;;;4924446;28;20043;-75
2023/08/18 08:02:19;;;;;;;10.88;6.68;;;;;;;;;;4905167;29;20178;-74
2023/08/18 08:04:45;;;;;;;11.68;6.82;;;;;;;;;;4923572;28;20587;-73
2023/08/18 08:07:12;;;;;;;9.50;6.18;;;;;;;;;;4905909;29;20055;-73
2023/08/18 08:09:38;;;;;;;10.70;6.25;;;;;;;;;;4895685;28;20055;-74
2023/08/18 08:12:05;;;;;;;13.95;6.28;;;;;;;;;;4926324;28;20047;-76
2023/08/18 08:14:31;;;;;;;9.57;6.43;;;;;;;;;;4928184;28;20126;-74
2023/08/18 08:16:58;;;;;;;11.82;6.90;;;;;;;;;;4923650;28;20050;-74
2023/08/18 08:19:25;;;;;;;12.25;6.90;;;;;;;;;;4906410;29;21964;-73
2023/08/18 08:21:52;;;;;;;9.75;6.47;;;;;;;;;;4919980;28;20209;-73
2023/08/18 08:24:18;;;;;;;13.30;6.82;;;;;;;;;;4903166;28;20132;-74
2023/08/18 08:26:44;;;;;;;10.07;6.95;;;;;;;;;;4920815;28;20569;-73
2023/08/18 08:29:11;;;;;;;11.57;7.93;;;;;;;;;;4920954;28;20054;-74
2023/08/18 08:31:38;;;;;;;10.02;7.50;;;;;;;;;;4921251;28;20047;-73
2023/08/18 08:34:04;;;;;;;11.80;6.63;;;;;;;;;;4921071;28;20179;-74
2023/08/18 08:36:32;;;;;;;12.55;7.50;;;;;;;;;;4905105;29;21879;-73
2023/08/18 08:39:02;;;;;;;10.45;6.22;;;;;;;;;;4897724;29;20044;-73
2023/08/18 08:41:29;;;;;;;14.95;7.22;;;;;;;;;;4925085;28;20074;-73
2023/08/18 08:43:55;;;;;;;17.08;6.85;;;;;;;;;;4899027;29;20057;-73
2023/08/18 08:46:22;;;;;;;11.50;6.10;;;;;;;;;;4910929;29;20043;-73
2023/08/18 08:48:48;;;;;;;11.48;6.68;;;;;;;;;;4924874;28;20047;-73
2023/08/18 08:51:15;;;;;;;11.73;6.88;;;;;;;;;;4907062;28;20125;-72
2023/08/18 08:53:45;;;;;;;9.20;6.55;;;;;;;;;;4913624;28;20043;-73
2023/08/18 08:56:11;;;;;;;9.38;6.32;;;;;;;;;;4907427;28;20051;-73
2023/08/18 08:58:38;;;;;;;12.93;6.35;;;;;;;;;;4891125;28;20043;-73
2023/08/18 09:01:07;;;;;;;13.90;6.47;;;;;;;;;;4921069;28;20047;-74
2023/08/18 09:03:33;;;;;;;11.88;6.40;;;;;;;;;;4921098;28;20050;-74
2023/08/18 09:06:00;;;;;;;13.40;7.30;;;;;;;;;;4894818;28;20066;-74
2023/08/18 09:08:26;;;;;;;8.80;6.32;;;;;;;;;;4921361;28;20135;-74
2023/08/18 09:10:52;;;;;;;7.97;5.47;;;;;;;;;;4904821;29;20170;-73
2023/08/18 09:13:18;;;;;;;8.60;5.15;;;;;;;;;;4918180;28;20043;-74
2023/08/18 09:15:45;;;;;;;10.40;5.45;;;;;;;;;;4902625;29;20039;-74
2023/08/18 09:18:18;;;;;;;9.38;5.15;;;;;;;;;;4906539;28;20043;-74
2023/08/18 09:20:45;;;;;;;11.65;5.32;;;;;;;;;;4923254;28;20067;-74
2023/08/18 09:23:11;;;;;;;11.07;5.38;;;;;;;;;;4920775;28;20137;-74
2023/08/18 09:25:38;;;;;;;11.00;5.07;;;;;;;;;;4907755;29;20126;-74
2023/08/18 09:28:05;;;;;;;9.18;4.80;;;;;;;;;;4897077;29;20432;-75
2023/08/18 09:30:31;;;;;;;10.38;5.18;;;;;;;;;;4906943;29;20051;-74
2023/08/18 09:33:00;;;;;;;10.73;5.80;;;;;;;;;;4914613;28;20040;-75
2023/08/18 09:35:26;;;;;;;10.88;4.57;;;;;;;;;;4910097;28;20051;-75
2023/08/18 09:37:57;;;;;;;12.73;4.30;;;;;;;;;;4911647;28;20051;-75
2023/08/18 09:40:23;;;;;;;8.25;4.18;;;;;;;;;;4907940;28;20064;-75
2023/08/18 09:42:49;;;;;;;8.13;4.30;;;;;;;;;;4924389;28;20086;-75
2023/08/18 09:45:15;;;;;;;12.90;4.50;;;;;;;;;;4909807;29;20070;-75
2023/08/18 09:47:42;;;;;;;8.57;4.25;;;;;;;;;;4924798;28;20044;-75
2023/08/18 09:50:13;;;;;;;10.00;3.58;;;;;;;;;;4923694;28;20241;-75
2023/08/18 09:52:42;;;;;;;8.88;4.82;;;;;;;;;;4926296;28;20127;-75
2023/08/18 09:55:14;;;;;;;10.57;4.70;;;;;;;;;;4914569;29;20047;-75
2023/08/18 09:57:46;;;;;;;11.52;4.65;;;;;;;;;;4910231;29;20060;-75
2023/08/18 10:00:14;;;;;;;6.00;4.10;;;;;;;;;;4910102;29;20134;-74
2023/08/18 10:02:44;;;;;;;9.15;4.80;;;;;;;;;;4923042;28;20039;-74
2023/08/18 10:05:10;;;;;;;14.38;4.50;;;;;;;;;;4920989;28;20050;-74
2023/08/18 10:07:37;;;;;;;7.10;3.97;;;;;;;;;;4918073;28;20183;-75
2023/08/18 10:10:03;;;;;;;6.30;4.18;;;;;;;;;;4906290;28;20043;-73
2023/08/18 10:12:29;;;;;;;8.35;4.20;;;;;;;;;;4923073;28;20548;-74
2023/08/18 10:14:56;;;;;;;10.32;4.22;;;;;;;;;;4907673;29;20047;-74
2023/08/18 10:17:24;;;;;;;6.70;4.57;;;;;;;;;;4906275;29;20143;-74
2023/08/18 10:20:00;;;;;;;11.75;5.00;;;;;;;;;;4891469;28;20081;-74
2023/08/18 10:22:28;;;;;;;11.65;5.03;;;;;;;;;;4922473;28;20067;-74
2023/08/18 10:24:55;;;;;;;13.68;5.53;;;;;;;;;;4904695;28;20141;-74
2023/08/18 10:27:27;;;;;;;7.40;4.07;;;;;;;;;;4924340;28;20586;-74
2023/08/18 10:30:09;;;;;;;9.98;4.20;;;;;;;;;;4909344;28;20166;-74
2023/08/18 10:32:35;;;;;;;8.38;4.15;;;;;;;;;;4905478;29;20047;-73
2023/08/18 10:35:28;;;;;;;8.50;4.50;;;;;;;;;;4907587;29;20058;-76
2023/08/18 10:37:55;;;;;;;6.35;4.13;;;;;;;;;;4905813;28;20578;-76
2023/08/18 10:40:22;;;;;;;8.52;4.60;;;;;;;;;;4908270;29;20118;-76
2023/08/18 10:42:50;;;;;;;9.60;4.60;;;;;;;;;;4907927;28;20053;-76
2023/08/18 10:45:23;;;;;;;7.70;4.63;;;;;;;;;;4925130;28;20087;-76
2023/08/18 10:47:49;;;;;;;10.07;5.05;;;;;;;;;;4910729;29;20492;-76
2023/08/18 10:50:15;;;;;;;7.82;4.85;;;;;;;;;;4925687;28;20070;-76
2023/08/18 10:52:41;;;;;;;7.00;4.82;;;;;;;;;;4908152;28;21972;-76
2023/08/18 10:55:08;;;;;;;11.00;5.15;;;;;;;;;;4929880;28;20048;-76
2023/08/18 10:57:34;;;;;;;8.80;5.15;;;;;;;;;;4911220;29;20449;-76
2023/08/18 11:00:00;;;;;;;5.93;3.95;;;;;;;;;;4907051;28;20051;-74
2023/08/18 11:02:27;;;;;;;4.93;4.15;;;;;;;;;;4912541;29;20058;-76
2023/08/18 11:04:53;;;;;;;12.52;4.72;;;;;;;;;;4897801;28;20515;-75
2023/08/18 11:07:19;;;;;;;8.32;5.38;;;;;;;;;;4926814;28;20389;-75
2023/08/18 11:09:45;;;;;;;6.35;4.88;;;;;;;;;;4922611;28;21606;-74
2023/08/18 11:12:11;;;;;;;9.35;6.30;;;;;;;;;;4909980;28;20062;-76
2023/08/18 11:14:38;;;;;;;7.70;5.25;;;;;;;;;;4908431;29;20040;-75
2023/08/18 11:17:04;;;;;;;8.25;4.90;;;;;;;;;;4924298;28;20036;-75
2023/08/18 11:19:30;;;;;;;10.43;5.90;;;;;;;;;;4927339;28;20737;-75
2023/08/18 11:21:57;;;;;;;7.47;6.55;;;;;;;;;;4909856;29;20067;-75
2023/08/18 11:24:23;;;;;;;9.85;7.20;;;;;;;;;;4907291;29;20282;-75
2023/08/18 11:26:50;;;;;;;11.07;7.43;;;;;;;;;;4924052;28;20772;-74
2023/08/18 11:29:16;;;;;;;10.63;7.53;;;;;;;;;;4921950;28;20040;-74
2023/08/18 11:31:45;;;;;;;12.60;6.95;;;;;;;;;;4925015;28;20135;-74
2023/08/18 11:34:11;;;;;;;8.05;6.57;;;;;;;;;;4928727;28;20039;-75
2023/08/18 11:36:39;;;;;;;9.00;7.13;;;;;;;;;;4925533;28;20054;-74
2023/08/18 11:39:09;;;;;;;11.40;7.50;;;;;;;;;;4908089;29;20130;-75
2023/08/18 11:41:39;;;;;;;11.52;7.88;;;;;;;;;;4924590;28;20496;-75
2023/08/18 11:44:07;;;;;;;13.52;8.15;;;;;;;;;;4923046;28;20044;-75
2023/08/18 11:46:33;;;;;;;14.23;8.45;;;;;;;;;;4911227;29;20174;-74
2023/08/18 11:49:02;;;;;;;12.13;8.45;;;;;;;;;;4923568;28;20495;-74
2023/08/18 11:51:28;;;;;;;9.38;8.35;;;;;;;;;;4910008;29;20051;-73
2023/08/18 11:53:54;;;;;;;9.80;8.15;;;;;;;;;;4923631;28;20044;-72
2023/08/18 11:56:23;;;;;;;13.75;8.30;;;;;;;;;;4921785;28;20578;-72
2023/08/18 11:58:49;;;;;;;17.85;8.38;;;;;;;;;;4922896;28;20586;-73
2023/08/18 12:01:15;;;;;;;12.43;8.35;;;;;;;;;;4908507;29;20047;-72
2023/08/18 12:03:42;;;;;;;11.90;8.25;;;;;;;;;;4921710;28;20070;-74
2023/08/18 12:06:08;;;;;;;10.32;8.10;;;;;;;;;;4908260;29;20058;-73
2023/08/18 12:08:34;;;;;;;14.57;8.70;;;;;;;;;;4903990;29;20054;-74
2023/08/18 12:11:01;;;;;;;11.50;8.68;;;;;;;;;;4921738;28;20671;-74
2023/08/18 12:13:30;;;;;;;9.88;8.85;;;;;;;;;;4922024;28;20059;-74
2023/08/18 12:15:56;;;;;;;11.32;8.07;;;;;;;;;;4907774;28;20051;-74
2023/08/18 12:18:22;;;;;;;12.02;8.20;;;;;;;;;;4923869;28;20054;-74
2023/08/18 12:20:48;;;;;;;14.57;9.50;;;;;;;;;;4910214;29;20167;-73
2023/08/18 12:23:15;;;;;;;14.13;8.75;;;;;;;;;;4924275;28;20047;-73
2023/08/18 12:25:42;;;;;;;13.55;9.43;;;;;;;;;;4906771;28;20145;-74
2023/08/18 12:28:09;;;;;;;10.30;8.63;;;;;;;;;;4924967;28;20054;-73
2023/08/18 12:30:35;;;;;;;11.55;8.93;;;;;;;;;;4923739;28;20166;-74
2023/08/18 12:33:01;;;;;;;10.20;9.10;;;;;;;;;;4909798;28;20032;-74
2023/08/18 12:35:30;;;;;;;9.70;8.43;;;;;;;;;;4911070;29;20178;-82
2023/08/18 12:37:56;;;;;;;10.10;8.50;;;;;;;;;;4910990;28;20746;-72
2023/08/18 12:40:29;;;;;;;9.25;7.72;;;;;;;;;;4922051;28;20051;-73
2023/08/18 12:42:58;;;;;;;9.25;8.35;;;;;;;;;;4898892;29;20047;-74
2023/08/18 12:45:24;;;;;;;9.40;7.82;;;;;;;;;;4895526;28;20071;-72
2023/08/18 12:47:50;;;;;;;11.77;8.70;;;;;;;;;;4892369;28;21701;-72
2023/08/18 12:50:17;;;;;;;9.70;7.93;;;;;;;;;;4909934;29;20048;-73
2023/08/18 12:52:43;;;;;;;9.07;8.18;;;;;;;;;;4908412;29;20039;-73
2023/08/18 12:55:09;;;;;;;8.48;7.60;;;;;;;;;;4922279;28;20041;-74
2023/08/18 12:57:36;;;;;;;9.60;7.82;;;;;;;;;;4918059;28;20089;-72
2023/08/18 13:00:03;;;;;;;9.73;7.93;;;;;;;;;;4920464;28;20043;-73
2023/08/18 13:02:29;;;;;;;11.02;8.70;;;;;;;;;;4914595;28;20098;-72
2023/08/18 13:04:55;;;;;;;9.15;8.25;;;;;;;;;;4914635;28;20630;-72
2023/08/18 13:07:21;;;;;;;11.65;8.65;;;;;;;;;;4916706;28;20078;-71
2023/08/18 13:09:47;;;;;;;10.02;8.57;;;;;;;;;;4915333;28;20043;-73
2023/08/18 13:12:13;;;;;;;10.65;7.85;;;;;;;;;;4903106;29;20553;-73
2023/08/18 13:14:39;;;;;;;9.85;8.23;;;;;;;;;;4920790;28;21639;-73
2023/08/18 13:17:05;;;;;;;7.25;6.22;;;;;;;;;;4921360;28;20043;-72
2023/08/18 13:19:33;;;;;;;7.95;6.47;;;;;;;;;;4918944;28;20066;-73
2023/08/18 13:21:59;;;;;;;8.32;6.82;;;;;;;;;;4902006;29;21093;-73
2023/08/18 13:24:25;;;;;;;7.68;6.75;;;;;;;;;;4917849;28;20501;-72
2023/08/18 13:26:51;;;;;;;8.63;6.60;;;;;;;;;;4920312;28;20626;-72
2023/08/18 13:29:17;;;;;;;8.40;7.30;;;;;;;;;;4917631;28;20043;-71
2023/08/18 13:31:43;;;;;;;9.43;6.93;;;;;;;;;;4916852;28;21710;-71
2023/08/18 13:34:09;;;;;;;8.68;7.78;;;;;;;;;;4918329;28;20066;-71
2023/08/18 13:36:38;;;;;;;11.57;7.88;;;;;;;;;;4917162;28;20055;-73
2023/08/18 13:39:04;;;;;;;10.48;7.47;;;;;;;;;;4919139;28;20047;-73
2023/08/18 13:41:30;;;;;;;9.32;8.13;;;;;;;;;;4914815;28;20094;-73
2023/08/18 13:43:57;;;;;;;9.55;7.43;;;;;;;;;;4901881;28;20052;-74
2023/08/18 13:46:23;;;;;;;8.75;7.85;;;;;;;;;;4917138;28;20078;-73
2023/08/18 13:48:49;;;;;;;8.68;7.78;;;;;;;;;;4915801;28;20043;-73
2023/08/18 13:51:15;;;;;;;9.30;7.40;;;;;;;;;;4922370;28;20043;-73
2023/08/18 13:53:41;;;;;;;8.75;7.57;;;;;;;;;;4915953;28;20048;-72
2023/08/18 13:56:07;;;;;;;8.23;7.35;;;;;;;;;;4888625;29;20048;-73
2023/08/18 13:58:33;;;;;;;10.25;7.13;;;;;;;;;;4902340;28;20852;-72
2023/08/18 14:01:00;;;;;;;9.15;7.43;;;;;;;;;;4902161;29;20063;-73
2023/08/18 14:03:26;;;;;;;13.55;8.82;;;;;;;;;;4901848;28;20685;-72
2023/08/18 14:05:53;;;;;;;8.30;7.50;;;;;;;;;;4899892;28;20106;-73
2023/08/18 14:08:19;;;;;;;13.02;9.88;;;;;;;;;;4898178;28;20479;-72
2023/08/18 14:10:45;;;;;;;10.70;8.90;;;;;;;;;;4916616;28;20134;-72
2023/08/18 14:13:11;;;;;;;9.48;8.48;;;;;;;;;;4916245;28;20058;-72
2023/08/18 14:15:37;;;;;;;11.80;9.10;;;;;;;;;;4919004;28;20046;-72
2023/08/18 14:18:04;;;;;;;9.20;7.57;;;;;;;;;;4907285;29;20054;-72
2023/08/18 14:20:30;;;;;;;13.95;8.65;;;;;;;;;;4921059;28;20594;-72
2023/08/18 14:22:56;;;;;;;11.63;8.98;;;;;;;;;;4924534;28;20397;-72
2023/08/18 14:25:23;;;;;;;8.55;7.60;;;;;;;;;;4908709;28;20050;-71
2023/08/18 14:27:50;;;;;;;9.48;8.10;;;;;;;;;;4924639;28;20459;-72
2023/08/18 14:30:16;;;;;;;10.63;9.18;;;;;;;;;;4922079;28;20484;-72
2023/08/18 14:32:42;;;;;;;10.98;9.00;;;;;;;;;;4921233;28;20483;-72
2023/08/18 14:35:08;;;;;;;14.23;9.10;;;;;;;;;;4922046;28;20436;-73